createdAt,value
2023-02-24T00:02:53.921Z,66.66
2023-02-24T00:07:55.392Z,66.52
2023-02-24T00:12:56.814Z,66.56
2023-02-24T00:17:58.884Z,66.54
2023-02-24T00:23:03.965Z,66.73
2023-02-24T00:28:05.289Z,66.56
2023-02-24T00:33:07.092Z,66.42
2023-02-24T00:38:08.613Z,66.55
2023-02-24T00:43:11.322Z,66.17
2023-02-24T00:48:15.347Z,66.27
2023-02-24T00:53:18.597Z,66.21
2023-02-24T00:58:20.767Z,66.10
2023-02-24T01:03:23.111Z,66.27
2023-02-24T01:08:24.844Z,66.62
2023-02-24T01:13:27.460Z,66.64
2023-02-24T01:18:31.747Z,66.30
2023-02-24T01:23:33.416Z,66.49
2023-02-24T01:28:35.442Z,66.23
2023-02-24T01:33:39.572Z,66.37
2023-02-24T01:38:42.239Z,66.34
2023-02-24T01:44:06.130Z,66.67
2023-02-24T01:49:15.879Z,66.39
2023-02-24T01:54:21.079Z,66.20
2023-02-24T01:59:26.115Z,67.18
2023-02-24T02:04:45.314Z,66.78
2023-02-24T02:09:48.398Z,66.72
2023-02-24T02:14:53.544Z,66.22
2023-02-24T02:20:20.441Z,66.81
2023-02-24T02:25:40.481Z,66.36
2023-02-24T02:31:04.262Z,66.00
2023-02-24T02:36:31.751Z,66.36
2023-02-24T02:41:53.628Z,66.00
2023-02-24T02:47:24.349Z,66.16
2023-02-24T02:52:47.446Z,66.24
2023-02-24T02:57:52.300Z,66.92
2023-02-24T03:03:04.127Z,65.67
2023-02-24T03:08:11.810Z,66.18
2023-02-24T03:13:16.481Z,65.41
2023-02-24T03:18:32.218Z,65.43
2023-02-24T03:23:50.567Z,65.27
2023-02-24T03:28:59.493Z,65.36
2023-02-24T03:34:10.267Z,65.02
2023-02-24T03:39:12.642Z,64.61
2023-02-24T03:44:14.998Z,64.75
2023-02-24T03:49:16.654Z,64.11
2023-02-24T03:54:44.841Z,64.50
2023-02-24T04:00:26.287Z,64.54
2023-02-24T04:05:32.699Z,64.54
2023-02-24T04:10:41.180Z,64.37
2023-02-24T04:15:47.300Z,65.93
2023-02-24T04:20:53.660Z,66.83
2023-02-24T04:25:58.044Z,67.15
2023-02-24T04:31:10.129Z,66.94
2023-02-24T04:36:12.820Z,67.32
2023-02-24T04:41:21.953Z,67.48
2023-02-24T04:46:26.366Z,66.80
2023-02-24T04:51:31.892Z,66.51
2023-02-24T04:56:33.522Z,66.60
2023-02-24T05:01:34.973Z,65.99
2023-02-24T05:06:41.236Z,66.09
2023-02-24T05:11:44.528Z,66.15
2023-02-24T05:16:48.395Z,66.04
2023-02-24T05:21:50.218Z,66.24
2023-02-24T05:26:58.104Z,65.98
2023-02-24T05:32:00.339Z,65.40
2023-02-24T05:37:10.093Z,65.42
2023-02-24T05:42:11.648Z,66.03
2023-02-24T05:47:13.084Z,65.88
2023-02-24T05:52:14.796Z,65.92
2023-02-24T05:57:21.541Z,65.89
2023-02-24T06:02:29.447Z,65.94
2023-02-24T06:07:34.926Z,66.61
2023-02-24T06:12:39.807Z,66.10
2023-02-24T06:17:41.382Z,66.22
2023-02-24T06:22:43.035Z,66.84
2023-02-24T06:27:44.910Z,66.35
2023-02-24T06:32:46.388Z,66.68
2023-02-24T06:37:48.041Z,67.10
2023-02-24T06:42:54.264Z,67.36
2023-02-24T06:47:55.915Z,67.17
2023-02-24T06:53:00.682Z,66.91
2023-02-24T06:58:06.471Z,66.79
2023-02-24T07:03:16.965Z,66.76
2023-02-24T07:08:23.505Z,66.81
2023-02-24T07:13:29.911Z,66.25
2023-02-24T07:18:31.377Z,65.80
2023-02-24T07:23:32.787Z,65.43
2023-02-24T07:28:34.466Z,65.33
2023-02-24T07:33:36.883Z,65.40
2023-02-24T07:38:39.303Z,65.35
2023-02-24T07:43:42.226Z,65.60
2023-02-24T07:48:43.919Z,65.52
2023-02-24T07:53:51.578Z,64.68
2023-02-24T07:59:03.031Z,63.16
2023-02-24T08:04:08.142Z,63.50
2023-02-24T08:09:21.167Z,62.00
2023-02-24T08:14:35.032Z,61.77
2023-02-24T08:19:40.096Z,61.78
2023-02-24T08:24:45.392Z,62.07
2023-02-24T08:30:03.728Z,61.41
2023-02-24T08:35:15.486Z,61.40
2023-02-24T08:40:34.155Z,60.83
2023-02-24T08:45:38.477Z,60.43
2023-02-24T08:50:40.037Z,59.80
2023-02-24T08:55:42.789Z,59.43
2023-02-24T09:00:49.591Z,59.11
2023-02-24T09:05:51.026Z,58.87
2023-02-24T09:10:52.421Z,58.81
2023-02-24T09:15:54.158Z,58.39
2023-02-24T09:21:36.941Z,56.43
2023-02-24T09:26:44.339Z,57.15
2023-02-24T09:31:55.412Z,55.18
2023-02-24T09:37:03.890Z,53.64
2023-02-24T09:42:12.490Z,54.60
2023-02-24T09:47:31.520Z,54.32
2023-02-24T09:52:43.043Z,53.90
2023-02-24T09:58:09.369Z,53.71
2023-02-24T10:03:25.035Z,53.68
2023-02-24T10:08:33.433Z,54.21
2023-02-24T10:13:38.688Z,53.98
2023-02-24T10:19:01.046Z,52.54
2023-02-24T10:24:14.665Z,49.90
2023-02-24T10:29:29.640Z,49.05
2023-02-24T10:34:34.488Z,48.76
2023-02-24T10:39:36.017Z,45.46
2023-02-24T10:44:38.889Z,43.29
2023-02-24T10:49:42.985Z,44.63
2023-02-24T10:55:05.130Z,45.60
2023-02-24T11:00:31.160Z,46.07
2023-02-24T11:06:01.859Z,46.64
2023-02-24T11:11:20.479Z,45.08
2023-02-24T11:16:54.348Z,41.75
2023-02-24T11:21:56.861Z,41.66
2023-02-24T11:26:58.655Z,40.26
2023-02-24T11:32:48.545Z,41.37
2023-02-24T11:38:08.104Z,43.61
2023-02-24T11:43:20.723Z,44.10
2023-02-24T11:48:28.265Z,43.88
2023-02-24T11:53:46.274Z,43.91
2023-02-24T11:59:01.168Z,43.58
2023-02-24T12:04:18.800Z,42.52
2023-02-24T12:09:26.396Z,41.68
2023-02-24T12:14:45.331Z,40.98
2023-02-24T12:19:57.746Z,41.95
2023-02-24T12:24:59.373Z,43.23
2023-02-24T12:30:06.503Z,44.91
2023-02-24T12:35:53.368Z,45.40
2023-02-24T12:41:06.495Z,45.73
2023-02-24T12:46:38.475Z,46.13
2023-02-24T12:52:20.684Z,47.45
2023-02-24T12:57:34.518Z,48.10
2023-02-24T13:03:00.704Z,47.97
2023-02-24T13:08:08.248Z,47.80
2023-02-24T13:13:19.616Z,48.27
2023-02-24T13:18:34.978Z,48.82
2023-02-24T13:23:40.303Z,49.63
2023-02-24T13:28:43.068Z,49.17
2023-02-24T13:33:45.557Z,49.59
2023-02-24T13:39:03.614Z,49.52
2023-02-24T13:44:25.076Z,49.33
2023-02-24T13:49:35.717Z,49.76
2023-02-24T13:55:11.112Z,50.41
2023-02-24T14:00:32.941Z,50.97
2023-02-24T14:05:36.322Z,51.04
2023-02-24T14:10:39.099Z,50.69
2023-02-24T14:15:43.951Z,51.05
2023-02-24T14:20:46.153Z,51.95
2023-02-24T14:25:49.689Z,52.47
2023-02-24T14:30:54.900Z,52.58
2023-02-24T14:35:57.311Z,52.61
2023-02-24T14:40:58.730Z,52.93
2023-02-24T14:46:05.780Z,52.70
2023-02-24T14:51:12.812Z,53.60
2023-02-24T14:56:15.640Z,53.93
2023-02-24T15:01:25.193Z,53.48
2023-02-24T15:06:32.762Z,53.68
2023-02-24T15:11:37.108Z,53.60
2023-02-24T15:16:43.748Z,54.10
2023-02-24T15:21:45.228Z,54.31
2023-02-24T15:26:56.961Z,53.92
2023-02-24T15:32:00.634Z,54.08
2023-02-24T15:37:15.179Z,53.48
2023-02-24T15:42:16.837Z,53.83
2023-02-24T15:47:27.198Z,53.42
2023-02-24T15:52:29.671Z,53.48
2023-02-24T15:57:32.494Z,53.43
2023-02-24T16:02:33.925Z,53.30
2023-02-24T16:07:38.073Z,52.90
2023-02-24T16:12:46.622Z,53.58
2023-02-24T16:17:48.702Z,53.35
2023-02-24T16:22:50.078Z,53.28
2023-02-24T16:27:57.438Z,54.89
2023-02-24T16:33:01.371Z,56.14
2023-02-24T16:38:02.965Z,58.09
2023-02-24T16:43:04.888Z,58.78
2023-02-24T16:48:16.500Z,60.71
2023-02-24T16:53:23.645Z,60.29
2023-02-24T16:58:25.575Z,60.27
2023-02-24T17:03:33.466Z,61.01
2023-02-24T17:08:35.656Z,62.31
2023-02-24T17:13:37.041Z,61.25
2023-02-24T17:18:38.410Z,64.06
2023-02-24T17:23:40.043Z,63.23
2023-02-24T17:28:43.793Z,63.44
2023-02-24T17:33:45.247Z,63.35
2023-02-24T17:38:47.763Z,63.06
2023-02-24T17:43:53.602Z,62.34
2023-02-24T17:48:55.163Z,62.50
2023-02-24T17:53:57.071Z,63.83
2023-02-24T17:59:00.843Z,63.80
2023-02-24T18:04:02.282Z,65.03
2023-02-24T18:09:03.720Z,64.32
2023-02-24T18:14:06.198Z,64.50
2023-02-24T18:19:08.151Z,64.81
2023-02-24T18:24:10.102Z,64.73
2023-02-24T18:29:11.947Z,64.64
2023-02-24T18:34:13.381Z,64.76
2023-02-24T18:39:15.115Z,64.74
2023-02-24T18:44:16.797Z,66.03
2023-02-24T18:49:18.538Z,66.81
2023-02-24T18:54:20.301Z,67.21
2023-02-24T18:59:21.733Z,67.20
2023-02-24T19:04:26.167Z,66.76
2023-02-24T19:09:29.083Z,67.03
2023-02-24T19:14:31.622Z,65.93
2023-02-24T19:19:33.179Z,66.42
2023-02-24T19:24:35.029Z,65.92
2023-02-24T19:29:36.397Z,71.60
2023-02-24T19:34:38.234Z,66.83
2023-02-24T19:39:40.053Z,66.77
2023-02-24T19:44:41.655Z,65.31
2023-02-24T19:49:43.372Z,67.00
2023-02-24T19:54:44.746Z,66.40
2023-02-24T19:59:46.307Z,66.70
2023-02-24T20:04:48.271Z,66.62
2023-02-24T20:09:49.916Z,66.41
2023-02-24T20:14:51.442Z,66.84
2023-02-24T20:19:53.377Z,66.96
2023-02-24T20:24:55.399Z,67.55
2023-02-24T20:29:57.192Z,67.48
2023-02-24T20:34:59.008Z,67.42
2023-02-24T20:40:00.925Z,66.76
2023-02-24T20:45:03.397Z,66.16
2023-02-24T20:50:05.948Z,65.76
2023-02-24T20:55:10.146Z,66.21
2023-02-24T21:00:12.311Z,65.71
2023-02-24T21:05:20.389Z,66.10
2023-02-24T21:10:26.370Z,65.53
2023-02-24T21:15:28.120Z,65.27
2023-02-24T21:20:30.412Z,65.95
2023-02-24T21:25:32.267Z,66.62
2023-02-24T21:30:33.655Z,65.96
2023-02-24T21:35:35.298Z,65.49
2023-02-24T21:40:37.373Z,65.94
2023-02-24T21:45:39.704Z,66.80
2023-02-24T21:50:41.316Z,66.70
2023-02-24T21:55:43.033Z,66.61
2023-02-24T22:00:44.719Z,66.34
2023-02-24T22:05:49.959Z,66.12
2023-02-24T22:11:01.560Z,65.99
2023-02-24T22:16:11.401Z,66.85
2023-02-24T22:21:17.260Z,66.76
2023-02-24T22:26:20.044Z,65.34
2023-02-24T22:31:24.254Z,62.93
2023-02-24T22:36:29.299Z,63.25
2023-02-24T22:41:33.920Z,64.91
2023-02-24T22:46:37.588Z,64.07
2023-02-24T22:51:39.275Z,64.55
2023-02-24T22:56:40.674Z,63.91
2023-02-24T23:01:42.873Z,64.21
2023-02-24T23:06:44.900Z,63.57
2023-02-24T23:11:47.605Z,62.36
2023-02-24T23:16:54.737Z,63.20
2023-02-24T23:21:57.062Z,64.06
2023-02-24T23:26:58.730Z,63.39
2023-02-24T23:32:00.274Z,63.28
2023-02-24T23:37:01.881Z,63.03
2023-02-24T23:42:03.365Z,62.58
2023-02-24T23:47:06.209Z,62.54
2023-02-24T23:52:08.545Z,62.52
2023-02-24T23:57:10.174Z,63.12
